DBBB/COO METAR and TAF weather

Enter ICAO airport designator
Station Type Date Time Source
DBBB METAR 2022/01/27 23:00 UTC NOAA

DBBB 272300Z 17006KT 4000 DU NSC 27/25 Q1011 NOSIG


Station Type Date Time Source
DBBB Decoded METAR 2022/01/27 23:00 UTC NOAA

Cotonou, Benin (DBBB) 06-21N 002-23E 9M
Jan 27, 2022 - 06:00 PM EST / 2022.01.27 2300 UTC
Wind: from the S (170 degrees) at 7 MPH (6 KT):0
Visibility: 2 mile(s):0
Weather: widespread dust
Temperature: 80 F (27 C)
Dew Point: 77 F (25 C)
Relative Humidity: 88%
Pressure (altimeter): 29.85 in. Hg (1011 hPa)
ob: DBBB 272300Z 17006KT 4000 DU NSC 27/25 Q1011 NOSIG
cycle: 23

Station Type Date Time Source
DBBB TAF 2022/01/27 18:21 UTC NOAA

TAF TAF DBBB 271700Z 2718/2824 18005KT 3500 DU NSC
BECMG 2802/2804 03010KT PROB30 2804/2810 2500 DU
BECMG 2814/2816 18005KT

Example: see airport list